sensor_id;sensor_type;location;lat;lon;timestamp;pressure;altitude;pressure_sealevel;temperature;humidity
24752;BME280;27246;52.376;4.628;2023-09-19T00:04:48;100478.09;;;16.64;59.20
24752;BME280;27246;52.376;4.628;2023-09-19T00:09:51;100478.09;;;16.64;57.82
24752;BME280;27246;52.376;4.628;2023-09-19T00:14:53;100485.06;;;16.73;58.01
24752;BME280;27246;52.376;4.628;2023-09-19T00:19:54;100488.91;;;16.72;57.72
24752;BME280;27246;52.376;4.628;2023-09-19T00:24:56;100490.44;;;16.68;58.20
24752;BME280;27246;52.376;4.628;2023-09-19T00:29:58;100497.09;;;16.67;59.56
24752;BME280;27246;52.376;4.628;2023-09-19T00:34:59;100495.34;;;16.73;60.00
24752;BME280;27246;52.376;4.628;2023-09-19T00:40:03;100511.38;;;16.71;59.73
24752;BME280;27246;52.376;4.628;2023-09-19T00:45:08;100506.03;;;16.69;60.02
24752;BME280;27246;52.376;4.628;2023-09-19T00:50:14;100499.63;;;16.69;59.71
24752;BME280;27246;52.376;4.628;2023-09-19T00:55:19;100498.09;;;16.73;60.42
24752;BME280;27246;52.376;4.628;2023-09-19T01:00:21;100495.25;;;16.79;62.26
24752;BME280;27246;52.376;4.628;2023-09-19T01:05:25;100502.97;;;16.77;61.94
24752;BME280;27246;52.376;4.628;2023-09-19T01:10:27;100497.72;;;16.69;61.06
24752;BME280;27246;52.376;4.628;2023-09-19T01:15:44;100497.88;;;16.74;61.41
24752;BME280;27246;52.376;4.628;2023-09-19T01:20:53;100500.69;;;16.68;60.15
24752;BME280;27246;52.376;4.628;2023-09-19T01:26:42;100507.69;;;16.77;60.45
24752;BME280;27246;52.376;4.628;2023-09-19T01:31:51;100515.00;;;16.71;63.55
24752;BME280;27246;52.376;4.628;2023-09-19T01:36:56;100506.22;;;16.74;66.04
24752;BME280;27246;52.376;4.628;2023-09-19T01:42:14;100505.75;;;16.77;67.43
24752;BME280;27246;52.376;4.628;2023-09-19T01:47:53;100502.53;;;16.80;65.75
24752;BME280;27246;52.376;4.628;2023-09-19T01:53:10;100503.59;;;16.79;66.36
24752;BME280;27246;52.376;4.628;2023-09-19T01:58:36;100509.81;;;16.82;65.53
24752;BME280;27246;52.376;4.628;2023-09-19T02:03:40;100501.94;;;16.72;65.41
24752;BME280;27246;52.376;4.628;2023-09-19T02:08:44;100505.56;;;16.72;65.60
24752;BME280;27246;52.376;4.628;2023-09-19T02:13:46;100516.44;;;16.74;65.74
24752;BME280;27246;52.376;4.628;2023-09-19T02:18:50;100515.72;;;16.60;64.87
24752;BME280;27246;52.376;4.628;2023-09-19T02:23:52;100522.28;;;16.66;63.17
24752;BME280;27246;52.376;4.628;2023-09-19T02:28:54;100524.50;;;16.57;61.21
24752;BME280;27246;52.376;4.628;2023-09-19T02:33:55;100523.66;;;16.56;60.70
24752;BME280;27246;52.376;4.628;2023-09-19T02:38:58;100522.91;;;16.68;63.50
24752;BME280;27246;52.376;4.628;2023-09-19T02:43:59;100507.72;;;16.70;63.42
24752;BME280;27246;52.376;4.628;2023-09-19T02:49:03;100520.34;;;16.66;62.54
24752;BME280;27246;52.376;4.628;2023-09-19T02:54:08;100513.28;;;16.70;65.80
24752;BME280;27246;52.376;4.628;2023-09-19T02:59:10;100504.56;;;16.67;65.17
24752;BME280;27246;52.376;4.628;2023-09-19T03:04:12;100515.19;;;16.76;68.27
24752;BME280;27246;52.376;4.628;2023-09-19T03:09:14;100504.94;;;16.45;74.34
24752;BME280;27246;52.376;4.628;2023-09-19T03:14:17;100510.84;;;16.30;75.83
24752;BME280;27246;52.376;4.628;2023-09-19T03:19:22;100500.00;;;16.22;71.73
24752;BME280;27246;52.376;4.628;2023-09-19T03:24:25;100504.66;;;16.28;69.08
24752;BME280;27246;52.376;4.628;2023-09-19T03:29:28;100496.56;;;16.27;68.64
24752;BME280;27246;52.376;4.628;2023-09-19T03:34:29;100533.69;;;16.26;65.20
24752;BME280;27246;52.376;4.628;2023-09-19T03:39:32;100528.38;;;16.24;64.18
24752;BME280;27246;52.376;4.628;2023-09-19T03:44:34;100530.28;;;16.24;63.10
24752;BME280;27246;52.376;4.628;2023-09-19T03:49:35;100533.63;;;16.39;61.82
24752;BME280;27246;52.376;4.628;2023-09-19T03:54:38;100540.84;;;16.40;62.70
24752;BME280;27246;52.376;4.628;2023-09-19T03:59:43;100559.16;;;16.48;64.89
24752;BME280;27246;52.376;4.628;2023-09-19T04:04:44;100557.06;;;16.43;64.26
24752;BME280;27246;52.376;4.628;2023-09-19T04:09:46;100559.84;;;16.43;65.09
24752;BME280;27246;52.376;4.628;2023-09-19T04:14:49;100565.13;;;16.51;62.48
24752;BME280;27246;52.376;4.628;2023-09-19T04:19:51;100556.88;;;16.38;62.77
24752;BME280;27246;52.376;4.628;2023-09-19T04:24:54;100558.81;;;16.37;63.70
24752;BME280;27246;52.376;4.628;2023-09-19T04:29:56;100551.56;;;16.36;64.25
24752;BME280;27246;52.376;4.628;2023-09-19T04:35:01;100548.16;;;16.34;65.54
24752;BME280;27246;52.376;4.628;2023-09-19T04:40:09;100552.00;;;16.33;65.04
24752;BME280;27246;52.376;4.628;2023-09-19T04:45:14;100560.53;;;16.38;63.75
24752;BME280;27246;52.376;4.628;2023-09-19T04:50:16;100566.06;;;16.38;63.61
24752;BME280;27246;52.376;4.628;2023-09-19T04:55:20;100561.56;;;16.44;64.36
24752;BME280;27246;52.376;4.628;2023-09-19T05:00:22;100570.19;;;16.61;65.38
24752;BME280;27246;52.376;4.628;2023-09-19T05:05:26;100560.06;;;16.42;63.22
24752;BME280;27246;52.376;4.628;2023-09-19T05:10:28;100558.16;;;16.42;62.82
24752;BME280;27246;52.376;4.628;2023-09-19T05:15:30;100559.63;;;16.45;67.10
24752;BME280;27246;52.376;4.628;2023-09-19T05:20:32;100565.00;;;16.39;69.03
24752;BME280;27246;52.376;4.628;2023-09-19T05:25:38;100547.28;;;16.34;69.11
24752;BME280;27246;52.376;4.628;2023-09-19T05:30:40;100557.78;;;16.32;73.95
24752;BME280;27246;52.376;4.628;2023-09-19T05:35:50;100559.97;;;16.23;76.24
24752;BME280;27246;52.376;4.628;2023-09-19T05:40:51;100556.78;;;16.26;77.17
24752;BME280;27246;52.376;4.628;2023-09-19T05:45:53;100562.84;;;16.10;75.54
24752;BME280;27246;52.376;4.628;2023-09-19T05:50:58;100575.63;;;16.11;73.46
24752;BME280;27246;52.376;4.628;2023-09-19T05:55:59;100567.47;;;16.23;73.61
24752;BME280;27246;52.376;4.628;2023-09-19T06:01:02;100578.97;;;16.26;72.91
24752;BME280;27246;52.376;4.628;2023-09-19T06:06:05;100571.22;;;16.35;73.42
24752;BME280;27246;52.376;4.628;2023-09-19T06:11:07;100566.50;;;16.42;74.66
24752;BME280;27246;52.376;4.628;2023-09-19T06:16:10;100586.41;;;16.32;77.08
24752;BME280;27246;52.376;4.628;2023-09-19T06:21:12;100583.06;;;16.17;79.44
24752;BME280;27246;52.376;4.628;2023-09-19T06:26:14;100582.00;;;16.11;81.32
24752;BME280;27246;52.376;4.628;2023-09-19T06:31:15;100575.69;;;15.97;82.52
24752;BME280;27246;52.376;4.628;2023-09-19T06:36:17;100577.81;;;16.02;82.68
24752;BME280;27246;52.376;4.628;2023-09-19T06:41:23;100583.38;;;16.02;77.79
24752;BME280;27246;52.376;4.628;2023-09-19T06:46:26;100580.69;;;16.20;73.77
24752;BME280;27246;52.376;4.628;2023-09-19T06:51:34;100594.75;;;16.26;73.50
24752;BME280;27246;52.376;4.628;2023-09-19T06:56:36;100600.03;;;16.34;72.83
24752;BME280;27246;52.376;4.628;2023-09-19T07:01:37;100606.88;;;16.31;72.45
24752;BME280;27246;52.376;4.628;2023-09-19T07:06:39;100616.03;;;16.38;69.83
24752;BME280;27246;52.376;4.628;2023-09-19T07:11:42;100601.28;;;16.45;67.47
24752;BME280;27246;52.376;4.628;2023-09-19T07:16:44;100601.00;;;16.53;67.47
24752;BME280;27246;52.376;4.628;2023-09-19T07:21:46;100621.63;;;16.64;68.41
24752;BME280;27246;52.376;4.628;2023-09-19T07:26:50;100610.94;;;16.67;68.16
24752;BME280;27246;52.376;4.628;2023-09-19T07:31:53;100610.09;;;16.67;68.53
24752;BME280;27246;52.376;4.628;2023-09-19T07:36:55;100610.22;;;16.78;70.53
24752;BME280;27246;52.376;4.628;2023-09-19T07:41:58;100611.91;;;16.79;68.78
24752;BME280;27246;52.376;4.628;2023-09-19T07:47:00;100606.28;;;16.93;68.48
24752;BME280;27246;52.376;4.628;2023-09-19T07:52:05;100607.47;;;17.04;66.90
24752;BME280;27246;52.376;4.628;2023-09-19T07:57:07;100593.50;;;17.10;66.55
24752;BME280;27246;52.376;4.628;2023-09-19T08:02:08;100606.13;;;17.13;68.07
24752;BME280;27246;52.376;4.628;2023-09-19T08:07:17;100593.41;;;17.24;65.24
24752;BME280;27246;52.376;4.628;2023-09-19T08:12:25;100593.50;;;17.35;65.08
24752;BME280;27246;52.376;4.628;2023-09-19T08:17:27;100576.03;;;17.28;65.26
24752;BME280;27246;52.376;4.628;2023-09-19T08:22:29;100588.97;;;17.41;65.70
24752;BME280;27246;52.376;4.628;2023-09-19T08:27:33;100578.22;;;17.45;64.06
24752;BME280;27246;52.376;4.628;2023-09-19T08:32:36;100608.06;;;17.31;63.91
24752;BME280;27246;52.376;4.628;2023-09-19T08:37:37;100584.53;;;17.33;65.00
24752;BME280;27246;52.376;4.628;2023-09-19T08:42:54;100583.22;;;17.36;66.06
24752;BME280;27246;52.376;4.628;2023-09-19T08:48:20;100579.22;;;17.32;66.38
24752;BME280;27246;52.376;4.628;2023-09-19T08:53:36;100582.75;;;17.39;67.77
24752;BME280;27246;52.376;4.628;2023-09-19T08:58:58;100583.53;;;17.46;68.57
24752;BME280;27246;52.376;4.628;2023-09-19T09:04:02;100587.53;;;17.32;75.97
24752;BME280;27246;52.376;4.628;2023-09-19T09:09:05;100586.94;;;17.30;78.04
24752;BME280;27246;52.376;4.628;2023-09-19T09:14:07;100593.44;;;17.42;79.67
24752;BME280;27246;52.376;4.628;2023-09-19T09:19:09;100584.88;;;17.44;78.80
24752;BME280;27246;52.376;4.628;2023-09-19T09:24:30;100588.09;;;17.59;79.73
24752;BME280;27246;52.376;4.628;2023-09-19T09:29:43;100579.91;;;17.46;79.95
24752;BME280;27246;52.376;4.628;2023-09-19T09:34:53;100583.41;;;17.41;80.63
24752;BME280;27246;52.376;4.628;2023-09-19T09:40:01;100567.28;;;17.25;82.43
24752;BME280;27246;52.376;4.628;2023-09-19T09:45:22;100569.09;;;17.37;82.90
24752;BME280;27246;52.376;4.628;2023-09-19T09:50:46;100559.88;;;17.37;82.58
24752;BME280;27246;52.376;4.628;2023-09-19T09:56:03;100556.28;;;17.55;81.84
24752;BME280;27246;52.376;4.628;2023-09-19T10:01:09;100543.22;;;17.37;81.11
24752;BME280;27246;52.376;4.628;2023-09-19T10:06:13;100553.19;;;17.45;80.81
24752;BME280;27246;52.376;4.628;2023-09-19T10:11:24;100542.06;;;17.63;80.26
24752;BME280;27246;52.376;4.628;2023-09-19T10:16:32;100529.66;;;17.47;79.96
24752;BME280;27246;52.376;4.628;2023-09-19T10:21:36;100530.28;;;17.49;80.43
24752;BME280;27246;52.376;4.628;2023-09-19T10:26:41;100515.88;;;17.52;81.27
24752;BME280;27246;52.376;4.628;2023-09-19T10:31:47;100506.47;;;17.53;81.61
24752;BME280;27246;52.376;4.628;2023-09-19T10:36:51;100513.94;;;17.53;81.46
24752;BME280;27246;52.376;4.628;2023-09-19T10:41:55;100519.38;;;17.48;84.71
24752;BME280;27246;52.376;4.628;2023-09-19T10:47:01;100530.47;;;17.11;86.70
24752;BME280;27246;52.376;4.628;2023-09-19T10:52:05;100518.19;;;17.18;85.44
24752;BME280;27246;52.376;4.628;2023-09-19T10:57:09;100509.09;;;17.30;84.25
24752;BME280;27246;52.376;4.628;2023-09-19T11:02:18;100501.38;;;17.32;84.15
24752;BME280;27246;52.376;4.628;2023-09-19T11:07:23;100510.03;;;17.42;84.39
24752;BME280;27246;52.376;4.628;2023-09-19T11:17:39;100484.97;;;17.60;82.82
24752;BME280;27246;52.376;4.628;2023-09-19T11:33:32;100498.69;;;17.44;87.33
24752;BME280;27246;52.376;4.628;2023-09-19T11:43:48;100480.38;;;17.36;90.27
24752;BME280;27246;52.376;4.628;2023-09-19T11:49:05;100486.72;;;17.43;87.47
24752;BME280;27246;52.376;4.628;2023-09-19T11:54:12;100485.28;;;17.52;87.90
24752;BME280;27246;52.376;4.628;2023-09-19T11:59:20;100490.72;;;17.47;91.17
24752;BME280;27246;52.376;4.628;2023-09-19T12:04:42;100478.13;;;17.26;95.45
24752;BME280;27246;52.376;4.628;2023-09-19T12:09:47;100493.97;;;17.26;96.90
24752;BME280;27246;52.376;4.628;2023-09-19T12:14:50;100483.28;;;17.23;100.00
24752;BME280;27246;52.376;4.628;2023-09-19T12:19:53;100491.56;;;17.48;98.30
24752;BME280;27246;52.376;4.628;2023-09-19T12:25:05;100493.72;;;17.64;96.86
24752;BME280;27246;52.376;4.628;2023-09-19T12:30:09;100481.31;;;17.78;96.53
24752;BME280;27246;52.376;4.628;2023-09-19T12:35:31;100457.59;;;17.94;94.69
24752;BME280;27246;52.376;4.628;2023-09-19T12:40:36;100459.44;;;17.82;95.78
24752;BME280;27246;52.376;4.628;2023-09-19T12:45:42;100456.28;;;17.78;95.35
24752;BME280;27246;52.376;4.628;2023-09-19T12:51:12;100458.84;;;17.80;93.66
24752;BME280;27246;52.376;4.628;2023-09-19T12:56:17;100460.47;;;17.88;91.93
24752;BME280;27246;52.376;4.628;2023-09-19T13:01:20;100474.63;;;17.86;91.75
24752;BME280;27246;52.376;4.628;2023-09-19T13:06:36;100478.25;;;17.87;92.45
24752;BME280;27246;52.376;4.628;2023-09-19T13:11:45;100472.22;;;18.02;91.69
24752;BME280;27246;52.376;4.628;2023-09-19T13:27:41;100465.81;;;18.01;92.75
24752;BME280;27246;52.376;4.628;2023-09-19T13:32:43;100461.00;;;17.78;95.97
24752;BME280;27246;52.376;4.628;2023-09-19T13:37:47;100460.72;;;17.86;94.77
24752;BME280;27246;52.376;4.628;2023-09-19T13:42:53;100464.09;;;17.88;94.01
24752;BME280;27246;52.376;4.628;2023-09-19T13:47:55;100454.34;;;17.79;94.99
24752;BME280;27246;52.376;4.628;2023-09-19T13:52:57;100477.41;;;17.86;97.57
24752;BME280;27246;52.376;4.628;2023-09-19T13:58:02;100449.47;;;17.93;97.95
24752;BME280;27246;52.376;4.628;2023-09-19T14:03:04;100456.97;;;17.92;97.40
24752;BME280;27246;52.376;4.628;2023-09-19T14:08:06;100439.44;;;18.04;96.14
24752;BME280;27246;52.376;4.628;2023-09-19T14:13:08;100445.28;;;18.02;96.03
24752;BME280;27246;52.376;4.628;2023-09-19T14:18:10;100442.53;;;18.14;96.17
24752;BME280;27246;52.376;4.628;2023-09-19T14:23:11;100449.66;;;18.10;97.35
24752;BME280;27246;52.376;4.628;2023-09-19T14:28:13;100447.91;;;17.97;98.50
24752;BME280;27246;52.376;4.628;2023-09-19T14:33:15;100445.13;;;17.97;96.00
24752;BME280;27246;52.376;4.628;2023-09-19T14:38:17;100452.28;;;18.05;96.79
24752;BME280;27246;52.376;4.628;2023-09-19T14:43:21;100454.41;;;17.91;100.00
24752;BME280;27246;52.376;4.628;2023-09-19T14:48:23;100451.44;;;17.74;100.00
24752;BME280;27246;52.376;4.628;2023-09-19T14:53:28;100463.13;;;17.64;100.00
24752;BME280;27246;52.376;4.628;2023-09-19T14:58:33;100455.00;;;17.63;100.00
24752;BME280;27246;52.376;4.628;2023-09-19T15:03:35;100447.66;;;17.68;100.00
24752;BME280;27246;52.376;4.628;2023-09-19T15:08:38;100460.25;;;17.71;100.00
24752;BME280;27246;52.376;4.628;2023-09-19T15:13:40;100449.94;;;17.59;100.00
24752;BME280;27246;52.376;4.628;2023-09-19T15:18:44;100459.94;;;17.60;100.00
24752;BME280;27246;52.376;4.628;2023-09-19T15:23:50;100460.88;;;17.54;100.00
24752;BME280;27246;52.376;4.628;2023-09-19T15:28:52;100456.13;;;17.43;100.00
24752;BME280;27246;52.376;4.628;2023-09-19T15:33:56;100457.50;;;17.34;100.00
24752;BME280;27246;52.376;4.628;2023-09-19T15:39:02;100454.22;;;17.25;100.00
24752;BME280;27246;52.376;4.628;2023-09-19T15:44:12;100460.13;;;17.29;100.00
24752;BME280;27246;52.376;4.628;2023-09-19T15:49:15;100458.97;;;17.18;100.00
24752;BME280;27246;52.376;4.628;2023-09-19T15:54:17;100459.69;;;17.13;100.00
24752;BME280;27246;52.376;4.628;2023-09-19T15:59:19;100474.34;;;17.20;100.00
24752;BME280;27246;52.376;4.628;2023-09-19T16:04:21;100463.53;;;17.12;100.00
24752;BME280;27246;52.376;4.628;2023-09-19T16:09:25;100459.06;;;17.11;100.00
24752;BME280;27246;52.376;4.628;2023-09-19T16:14:27;100457.84;;;17.07;100.00
24752;BME280;27246;52.376;4.628;2023-09-19T16:19:30;100453.97;;;17.08;100.00
24752;BME280;27246;52.376;4.628;2023-09-19T16:24:33;100446.56;;;17.02;100.00
24752;BME280;27246;52.376;4.628;2023-09-19T16:29:35;100473.09;;;16.98;100.00
24752;BME280;27246;52.376;4.628;2023-09-19T16:34:37;100471.41;;;16.97;100.00
24752;BME280;27246;52.376;4.628;2023-09-19T16:39:39;100455.81;;;16.96;100.00
24752;BME280;27246;52.376;4.628;2023-09-19T16:44:41;100474.72;;;16.87;100.00
24752;BME280;27246;52.376;4.628;2023-09-19T16:49:42;100470.41;;;16.91;100.00
24752;BME280;27246;52.376;4.628;2023-09-19T16:54:44;100463.06;;;16.97;100.00
24752;BME280;27246;52.376;4.628;2023-09-19T16:59:46;100465.28;;;16.88;100.00
24752;BME280;27246;52.376;4.628;2023-09-19T17:04:50;100470.91;;;16.82;100.00
24752;BME280;27246;52.376;4.628;2023-09-19T17:09:53;100466.47;;;16.74;100.00
24752;BME280;27246;52.376;4.628;2023-09-19T17:14:56;100473.97;;;16.73;100.00
24752;BME280;27246;52.376;4.628;2023-09-19T17:20:00;100478.03;;;16.71;100.00
24752;BME280;27246;52.376;4.628;2023-09-19T17:25:01;100464.69;;;16.61;100.00
24752;BME280;27246;52.376;4.628;2023-09-19T17:30:06;100480.94;;;16.57;100.00
24752;BME280;27246;52.376;4.628;2023-09-19T17:35:09;100490.28;;;16.63;100.00
24752;BME280;27246;52.376;4.628;2023-09-19T17:40:11;100477.31;;;16.57;100.00
24752;BME280;27246;52.376;4.628;2023-09-19T17:45:14;100478.84;;;16.53;100.00
24752;BME280;27246;52.376;4.628;2023-09-19T17:50:17;100473.72;;;16.50;100.00
24752;BME280;27246;52.376;4.628;2023-09-19T17:55:19;100470.81;;;16.45;100.00
24752;BME280;27246;52.376;4.628;2023-09-19T18:00:21;100474.59;;;16.50;100.00
24752;BME280;27246;52.376;4.628;2023-09-19T18:05:23;100477.59;;;16.49;100.00
24752;BME280;27246;52.376;4.628;2023-09-19T18:10:26;100478.66;;;16.48;100.00
24752;BME280;27246;52.376;4.628;2023-09-19T18:15:28;100483.56;;;16.52;100.00
24752;BME280;27246;52.376;4.628;2023-09-19T18:20:34;100489.09;;;16.52;100.00
24752;BME280;27246;52.376;4.628;2023-09-19T18:25:38;100491.47;;;16.49;100.00
24752;BME280;27246;52.376;4.628;2023-09-19T18:30:40;100499.19;;;16.47;100.00
24752;BME280;27246;52.376;4.628;2023-09-19T18:35:42;100491.06;;;16.45;100.00
24752;BME280;27246;52.376;4.628;2023-09-19T18:40:44;100502.66;;;16.42;100.00
24752;BME280;27246;52.376;4.628;2023-09-19T18:45:55;100495.16;;;16.43;100.00
24752;BME280;27246;52.376;4.628;2023-09-19T18:51:07;100491.53;;;16.42;100.00
24752;BME280;27246;52.376;4.628;2023-09-19T18:56:11;100501.63;;;16.36;100.00
24752;BME280;27246;52.376;4.628;2023-09-19T19:01:16;100491.56;;;16.35;100.00
24752;BME280;27246;52.376;4.628;2023-09-19T19:06:20;100495.25;;;16.29;100.00
24752;BME280;27246;52.376;4.628;2023-09-19T19:11:23;100487.94;;;16.35;100.00
24752;BME280;27246;52.376;4.628;2023-09-19T19:16:30;100490.53;;;16.30;100.00
24752;BME280;27246;52.376;4.628;2023-09-19T19:21:33;100498.66;;;16.31;100.00
24752;BME280;27246;52.376;4.628;2023-09-19T19:26:35;100502.25;;;16.38;100.00
24752;BME280;27246;52.376;4.628;2023-09-19T19:31:37;100507.31;;;16.42;100.00
24752;BME280;27246;52.376;4.628;2023-09-19T19:36:40;100505.44;;;16.35;100.00
24752;BME280;27246;52.376;4.628;2023-09-19T19:41:42;100516.28;;;16.44;100.00
24752;BME280;27246;52.376;4.628;2023-09-19T19:46:45;100517.38;;;16.43;100.00
24752;BME280;27246;52.376;4.628;2023-09-19T19:51:47;100511.81;;;16.43;100.00
24752;BME280;27246;52.376;4.628;2023-09-19T19:56:51;100527.22;;;16.38;100.00
24752;BME280;27246;52.376;4.628;2023-09-19T20:01:53;100516.97;;;16.39;100.00
24752;BME280;27246;52.376;4.628;2023-09-19T20:06:55;100517.81;;;16.39;100.00
24752;BME280;27246;52.376;4.628;2023-09-19T20:11:56;100502.88;;;16.40;100.00
24752;BME280;27246;52.376;4.628;2023-09-19T20:16:59;100510.44;;;16.52;100.00
24752;BME280;27246;52.376;4.628;2023-09-19T20:22:01;100501.06;;;16.53;100.00
24752;BME280;27246;52.376;4.628;2023-09-19T20:27:07;100513.41;;;16.57;100.00
24752;BME280;27246;52.376;4.628;2023-09-19T20:32:08;100503.53;;;16.61;100.00
24752;BME280;27246;52.376;4.628;2023-09-19T20:37:10;100493.13;;;16.56;100.00
24752;BME280;27246;52.376;4.628;2023-09-19T20:42:12;100512.31;;;16.58;100.00
24752;BME280;27246;52.376;4.628;2023-09-19T20:47:15;100500.78;;;16.61;100.00
24752;BME280;27246;52.376;4.628;2023-09-19T20:52:35;100498.53;;;16.70;100.00
24752;BME280;27246;52.376;4.628;2023-09-19T20:57:37;100488.13;;;16.65;100.00
24752;BME280;27246;52.376;4.628;2023-09-19T21:02:39;100490.69;;;16.67;100.00
24752;BME280;27246;52.376;4.628;2023-09-19T21:07:41;100491.75;;;16.66;100.00
24752;BME280;27246;52.376;4.628;2023-09-19T21:12:45;100487.66;;;16.68;100.00
24752;BME280;27246;52.376;4.628;2023-09-19T21:17:46;100465.84;;;16.72;100.00
24752;BME280;27246;52.376;4.628;2023-09-19T21:22:49;100472.03;;;16.74;100.00
24752;BME280;27246;52.376;4.628;2023-09-19T21:27:51;100475.41;;;16.76;100.00
24752;BME280;27246;52.376;4.628;2023-09-19T21:32:53;100477.34;;;16.75;100.00
24752;BME280;27246;52.376;4.628;2023-09-19T21:37:55;100493.53;;;16.85;100.00
24752;BME280;27246;52.376;4.628;2023-09-19T21:42:57;100494.31;;;16.92;100.00
24752;BME280;27246;52.376;4.628;2023-09-19T21:47:58;100487.06;;;16.91;100.00
24752;BME280;27246;52.376;4.628;2023-09-19T21:53:00;100494.78;;;16.89;100.00
24752;BME280;27246;52.376;4.628;2023-09-19T21:58:02;100490.53;;;16.87;100.00
24752;BME280;27246;52.376;4.628;2023-09-19T22:03:05;100482.03;;;16.82;100.00
24752;BME280;27246;52.376;4.628;2023-09-19T22:08:10;100480.31;;;16.80;100.00
24752;BME280;27246;52.376;4.628;2023-09-19T22:13:13;100484.81;;;16.82;100.00
24752;BME280;27246;52.376;4.628;2023-09-19T22:18:21;100480.25;;;16.87;100.00
24752;BME280;27246;52.376;4.628;2023-09-19T22:23:23;100473.41;;;16.90;100.00
24752;BME280;27246;52.376;4.628;2023-09-19T22:28:37;100477.59;;;16.99;100.00
24752;BME280;27246;52.376;4.628;2023-09-19T22:33:42;100475.88;;;16.98;100.00
24752;BME280;27246;52.376;4.628;2023-09-19T22:38:44;100487.47;;;16.95;100.00
24752;BME280;27246;52.376;4.628;2023-09-19T22:43:47;100492.13;;;16.94;100.00
24752;BME280;27246;52.376;4.628;2023-09-19T22:48:50;100496.09;;;16.87;100.00
24752;BME280;27246;52.376;4.628;2023-09-19T22:53:52;100508.75;;;16.83;100.00
24752;BME280;27246;52.376;4.628;2023-09-19T22:59:02;100521.09;;;16.87;100.00
24752;BME280;27246;52.376;4.628;2023-09-19T23:04:07;100493.94;;;16.89;100.00
24752;BME280;27246;52.376;4.628;2023-09-19T23:09:13;100501.16;;;16.90;100.00
24752;BME280;27246;52.376;4.628;2023-09-19T23:14:23;100501.97;;;16.97;100.00
24752;BME280;27246;52.376;4.628;2023-09-19T23:19:32;100507.91;;;17.00;100.00
24752;BME280;27246;52.376;4.628;2023-09-19T23:24:33;100505.50;;;17.04;100.00
24752;BME280;27246;52.376;4.628;2023-09-19T23:29:39;100497.41;;;17.03;100.00
24752;BME280;27246;52.376;4.628;2023-09-19T23:34:42;100495.19;;;17.11;100.00
24752;BME280;27246;52.376;4.628;2023-09-19T23:39:44;100495.41;;;17.10;100.00
24752;BME280;27246;52.376;4.628;2023-09-19T23:44:50;100484.91;;;17.12;100.00
24752;BME280;27246;52.376;4.628;2023-09-19T23:49:52;100486.31;;;17.21;100.00
24752;BME280;27246;52.376;4.628;2023-09-19T23:54:55;100484.53;;;17.27;100.00
